sensor_id;sensor_type;location;lat;lon;timestamp;P1;durP1;ratioP1;P2;durP2;ratioP2
1831;SDS011;1680;48.106;11.708;2023-02-26T00:00:05;1.83;;;1.40;;
1831;SDS011;1680;48.106;11.708;2023-02-26T00:02:36;1.75;;;1.65;;
1831;SDS011;1680;48.106;11.708;2023-02-26T00:05:04;2.35;;;1.80;;
1831;SDS011;1680;48.106;11.708;2023-02-26T00:07:32;2.38;;;2.20;;
1831;SDS011;1680;48.106;11.708;2023-02-26T00:09:59;2.60;;;1.90;;
1831;SDS011;1680;48.106;11.708;2023-02-26T00:12:29;3.33;;;2.22;;
1831;SDS011;1680;48.106;11.708;2023-02-26T00:14:57;1.80;;;1.70;;
1831;SDS011;1680;48.106;11.708;2023-02-26T00:20:10;2.83;;;2.25;;
1831;SDS011;1680;48.106;11.708;2023-02-26T00:22:41;2.75;;;2.50;;
1831;SDS011;1680;48.106;11.708;2023-02-26T00:25:09;2.40;;;2.20;;
1831;SDS011;1680;48.106;11.708;2023-02-26T00:27:38;2.25;;;2.15;;
1831;SDS011;1680;48.106;11.708;2023-02-26T00:30:07;2.30;;;2.13;;
1831;SDS011;1680;48.106;11.708;2023-02-26T00:32:35;2.47;;;2.00;;
1831;SDS011;1680;48.106;11.708;2023-02-26T00:35:05;2.50;;;2.30;;
1831;SDS011;1680;48.106;11.708;2023-02-26T00:37:37;2.05;;;1.95;;
1831;SDS011;1680;48.106;11.708;2023-02-26T00:40:34;2.40;;;2.10;;
1831;SDS011;1680;48.106;11.708;2023-02-26T00:43:08;3.97;;;2.60;;
1831;SDS011;1680;48.106;11.708;2023-02-26T00:45:40;2.22;;;2.03;;
1831;SDS011;1680;48.106;11.708;2023-02-26T00:48:15;2.67;;;2.30;;
1831;SDS011;1680;48.106;11.708;2023-02-26T00:50:55;2.05;;;1.95;;
1831;SDS011;1680;48.106;11.708;2023-02-26T00:53:30;1.95;;;1.85;;
1831;SDS011;1680;48.106;11.708;2023-02-26T00:56:02;2.92;;;2.25;;
1831;SDS011;1680;48.106;11.708;2023-02-26T00:58:30;5.03;;;2.47;;
1831;SDS011;1680;48.106;11.708;2023-02-26T01:00:58;2.45;;;2.25;;
1831;SDS011;1680;48.106;11.708;2023-02-26T01:03:26;2.00;;;1.90;;
1831;SDS011;1680;48.106;11.708;2023-02-26T01:05:53;2.28;;;2.10;;
1831;SDS011;1680;48.106;11.708;2023-02-26T01:08:22;3.15;;;2.20;;
1831;SDS011;1680;48.106;11.708;2023-02-26T01:10:53;2.10;;;2.00;;
1831;SDS011;1680;48.106;11.708;2023-02-26T01:13:21;2.58;;;2.38;;
1831;SDS011;1680;48.106;11.708;2023-02-26T01:15:51;2.20;;;2.00;;
1831;SDS011;1680;48.106;11.708;2023-02-26T01:18:25;2.58;;;2.00;;
1831;SDS011;1680;48.106;11.708;2023-02-26T01:20:59;2.35;;;2.17;;
1831;SDS011;1680;48.106;11.708;2023-02-26T01:23:30;2.30;;;2.10;;
1831;SDS011;1680;48.106;11.708;2023-02-26T01:26:02;2.75;;;2.28;;
1831;SDS011;1680;48.106;11.708;2023-02-26T01:28:34;2.40;;;1.95;;
1831;SDS011;1680;48.106;11.708;2023-02-26T01:31:04;2.42;;;2.25;;
1831;SDS011;1680;48.106;11.708;2023-02-26T01:33:38;3.33;;;2.50;;
1831;SDS011;1680;48.106;11.708;2023-02-26T01:36:11;2.40;;;2.20;;
1831;SDS011;1680;48.106;11.708;2023-02-26T01:38:47;2.70;;;2.50;;
1831;SDS011;1680;48.106;11.708;2023-02-26T01:41:25;2.10;;;2.00;;
1831;SDS011;1680;48.106;11.708;2023-02-26T01:44:03;2.40;;;2.30;;
1831;SDS011;1680;48.106;11.708;2023-02-26T01:46:48;2.08;;;1.98;;
1831;SDS011;1680;48.106;11.708;2023-02-26T01:49:22;1.80;;;1.70;;
1831;SDS011;1680;48.106;11.708;2023-02-26T01:51:51;2.00;;;1.90;;
1831;SDS011;1680;48.106;11.708;2023-02-26T01:54:21;1.80;;;1.70;;
1831;SDS011;1680;48.106;11.708;2023-02-26T01:56:52;1.83;;;1.73;;
1831;SDS011;1680;48.106;11.708;2023-02-26T01:59:29;1.88;;;1.77;;
1831;SDS011;1680;48.106;11.708;2023-02-26T02:01:58;2.03;;;1.80;;
1831;SDS011;1680;48.106;11.708;2023-02-26T02:04:28;2.33;;;2.22;;
1831;SDS011;1680;48.106;11.708;2023-02-26T02:06:58;1.90;;;1.80;;
1831;SDS011;1680;48.106;11.708;2023-02-26T02:09:26;1.90;;;1.70;;
1831;SDS011;1680;48.106;11.708;2023-02-26T02:12:00;1.83;;;1.73;;
1831;SDS011;1680;48.106;11.708;2023-02-26T02:14:41;1.90;;;1.80;;
1831;SDS011;1680;48.106;11.708;2023-02-26T02:17:18;1.70;;;1.60;;
1831;SDS011;1680;48.106;11.708;2023-02-26T02:22:55;1.70;;;1.50;;
1831;SDS011;1680;48.106;11.708;2023-02-26T02:25:37;1.65;;;1.55;;
1831;SDS011;1680;48.106;11.708;2023-02-26T02:28:24;2.13;;;1.70;;
1831;SDS011;1680;48.106;11.708;2023-02-26T02:31:05;2.20;;;2.10;;
1831;SDS011;1680;48.106;11.708;2023-02-26T02:33:41;1.83;;;1.73;;
1831;SDS011;1680;48.106;11.708;2023-02-26T02:36:15;2.03;;;1.83;;
1831;SDS011;1680;48.106;11.708;2023-02-26T02:38:50;1.75;;;1.63;;
1831;SDS011;1680;48.106;11.708;2023-02-26T02:41:23;2.03;;;1.83;;
1831;SDS011;1680;48.106;11.708;2023-02-26T02:43:56;2.00;;;1.75;;
1831;SDS011;1680;48.106;11.708;2023-02-26T02:46:29;1.83;;;1.73;;
1831;SDS011;1680;48.106;11.708;2023-02-26T02:48:59;2.65;;;1.90;;
1831;SDS011;1680;48.106;11.708;2023-02-26T02:51:29;1.73;;;1.63;;
1831;SDS011;1680;48.106;11.708;2023-02-26T02:54:00;2.20;;;1.80;;
1831;SDS011;1680;48.106;11.708;2023-02-26T02:56:33;2.00;;;1.63;;
1831;SDS011;1680;48.106;11.708;2023-02-26T02:59:08;2.55;;;1.73;;
1831;SDS011;1680;48.106;11.708;2023-02-26T03:01:40;2.35;;;1.80;;
1831;SDS011;1680;48.106;11.708;2023-02-26T03:04:10;2.25;;;1.58;;
1831;SDS011;1680;48.106;11.708;2023-02-26T03:06:40;2.22;;;1.60;;
1831;SDS011;1680;48.106;11.708;2023-02-26T03:09:09;1.83;;;1.67;;
1831;SDS011;1680;48.106;11.708;2023-02-26T03:11:37;1.88;;;1.25;;
1831;SDS011;1680;48.106;11.708;2023-02-26T03:14:04;2.42;;;2.22;;
1831;SDS011;1680;48.106;11.708;2023-02-26T03:16:46;2.75;;;1.92;;
1831;SDS011;1680;48.106;11.708;2023-02-26T03:19:23;2.47;;;1.25;;
1831;SDS011;1680;48.106;11.708;2023-02-26T03:21:58;1.83;;;1.58;;
1831;SDS011;1680;48.106;11.708;2023-02-26T03:24:31;1.52;;;1.42;;
1831;SDS011;1680;48.106;11.708;2023-02-26T03:27:04;2.78;;;1.45;;
1831;SDS011;1680;48.106;11.708;2023-02-26T03:29:39;1.92;;;1.60;;
1831;SDS011;1680;48.106;11.708;2023-02-26T03:32:15;2.92;;;1.50;;
1831;SDS011;1680;48.106;11.708;2023-02-26T03:34:48;1.23;;;1.00;;
1831;SDS011;1680;48.106;11.708;2023-02-26T03:37:20;2.10;;;1.67;;
1831;SDS011;1680;48.106;11.708;2023-02-26T03:39:52;2.00;;;1.30;;
1831;SDS011;1680;48.106;11.708;2023-02-26T03:42:24;1.30;;;1.20;;
1831;SDS011;1680;48.106;11.708;2023-02-26T03:44:56;1.70;;;1.25;;
1831;SDS011;1680;48.106;11.708;2023-02-26T03:47:27;2.38;;;1.45;;
1831;SDS011;1680;48.106;11.708;2023-02-26T03:49:57;2.42;;;1.40;;
1831;SDS011;1680;48.106;11.708;2023-02-26T03:52:28;2.47;;;1.30;;
1831;SDS011;1680;48.106;11.708;2023-02-26T03:55:00;2.60;;;1.48;;
1831;SDS011;1680;48.106;11.708;2023-02-26T03:57:31;1.52;;;1.33;;
1831;SDS011;1680;48.106;11.708;2023-02-26T03:59:58;2.63;;;1.65;;
1831;SDS011;1680;48.106;11.708;2023-02-26T04:02:29;1.65;;;1.20;;
1831;SDS011;1680;48.106;11.708;2023-02-26T04:05:02;2.25;;;1.70;;
1831;SDS011;1680;48.106;11.708;2023-02-26T04:07:34;1.75;;;1.65;;
1831;SDS011;1680;48.106;11.708;2023-02-26T04:10:03;2.17;;;1.98;;
1831;SDS011;1680;48.106;11.708;2023-02-26T04:12:32;4.03;;;2.15;;
1831;SDS011;1680;48.106;11.708;2023-02-26T04:14:59;3.35;;;1.80;;
1831;SDS011;1680;48.106;11.708;2023-02-26T04:17:30;2.00;;;1.60;;
1831;SDS011;1680;48.106;11.708;2023-02-26T04:19:58;2.08;;;1.55;;
1831;SDS011;1680;48.106;11.708;2023-02-26T04:22:25;2.22;;;1.50;;
1831;SDS011;1680;48.106;11.708;2023-02-26T04:24:52;2.10;;;1.90;;
1831;SDS011;1680;48.106;11.708;2023-02-26T04:27:20;2.22;;;1.65;;
1831;SDS011;1680;48.106;11.708;2023-02-26T04:29:47;2.63;;;1.50;;
1831;SDS011;1680;48.106;11.708;2023-02-26T04:32:14;2.00;;;1.40;;
1831;SDS011;1680;48.106;11.708;2023-02-26T04:34:43;2.13;;;1.20;;
1831;SDS011;1680;48.106;11.708;2023-02-26T04:37:10;1.63;;;1.50;;
1831;SDS011;1680;48.106;11.708;2023-02-26T04:39:38;1.58;;;1.48;;
1831;SDS011;1680;48.106;11.708;2023-02-26T04:42:05;1.73;;;1.63;;
1831;SDS011;1680;48.106;11.708;2023-02-26T04:44:32;3.13;;;1.70;;
1831;SDS011;1680;48.106;11.708;2023-02-26T04:46:59;2.17;;;1.50;;
1831;SDS011;1680;48.106;11.708;2023-02-26T04:49:27;1.88;;;1.75;;
1831;SDS011;1680;48.106;11.708;2023-02-26T04:51:56;1.88;;;1.77;;
1831;SDS011;1680;48.106;11.708;2023-02-26T04:54:23;2.95;;;1.50;;
1831;SDS011;1680;48.106;11.708;2023-02-26T04:56:50;4.65;;;2.40;;
1831;SDS011;1680;48.106;11.708;2023-02-26T04:59:18;3.17;;;1.77;;
1831;SDS011;1680;48.106;11.708;2023-02-26T05:01:45;1.45;;;1.20;;
1831;SDS011;1680;48.106;11.708;2023-02-26T05:04:13;3.17;;;2.00;;
1831;SDS011;1680;48.106;11.708;2023-02-26T05:06:40;2.40;;;1.90;;
1831;SDS011;1680;48.106;11.708;2023-02-26T05:09:09;2.47;;;2.17;;
1831;SDS011;1680;48.106;11.708;2023-02-26T05:11:36;1.90;;;1.70;;
1831;SDS011;1680;48.106;11.708;2023-02-26T05:14:04;3.13;;;2.83;;
1831;SDS011;1680;48.106;11.708;2023-02-26T05:16:31;2.38;;;1.60;;
1831;SDS011;1680;48.106;11.708;2023-02-26T05:18:59;5.50;;;1.60;;
1831;SDS011;1680;48.106;11.708;2023-02-26T05:21:26;2.38;;;1.80;;
1831;SDS011;1680;48.106;11.708;2023-02-26T05:23:53;3.10;;;2.10;;
1831;SDS011;1680;48.106;11.708;2023-02-26T05:26:22;3.55;;;1.88;;
1831;SDS011;1680;48.106;11.708;2023-02-26T05:28:49;3.20;;;2.05;;
1831;SDS011;1680;48.106;11.708;2023-02-26T05:31:17;4.10;;;1.70;;
1831;SDS011;1680;48.106;11.708;2023-02-26T05:33:44;1.92;;;1.58;;
1831;SDS011;1680;48.106;11.708;2023-02-26T05:36:12;2.88;;;1.63;;
1831;SDS011;1680;48.106;11.708;2023-02-26T05:38:39;2.65;;;1.52;;
1831;SDS011;1680;48.106;11.708;2023-02-26T05:41:06;2.00;;;1.50;;
1831;SDS011;1680;48.106;11.708;2023-02-26T05:43:35;1.95;;;1.70;;
1831;SDS011;1680;48.106;11.708;2023-02-26T05:46:03;1.73;;;1.63;;
1831;SDS011;1680;48.106;11.708;2023-02-26T05:48:31;2.50;;;1.50;;
1831;SDS011;1680;48.106;11.708;2023-02-26T05:50:58;3.05;;;1.90;;
1831;SDS011;1680;48.106;11.708;2023-02-26T05:53:26;2.70;;;2.00;;
1831;SDS011;1680;48.106;11.708;2023-02-26T05:55:54;3.10;;;2.10;;
1831;SDS011;1680;48.106;11.708;2023-02-26T05:58:21;2.13;;;1.90;;
1831;SDS011;1680;48.106;11.708;2023-02-26T06:00:50;2.95;;;1.55;;
1831;SDS011;1680;48.106;11.708;2023-02-26T06:03:17;2.10;;;1.90;;
1831;SDS011;1680;48.106;11.708;2023-02-26T06:05:44;2.15;;;1.70;;
1831;SDS011;1680;48.106;11.708;2023-02-26T06:08:12;2.85;;;2.08;;
1831;SDS011;1680;48.106;11.708;2023-02-26T06:10:41;5.10;;;2.05;;
1831;SDS011;1680;48.106;11.708;2023-02-26T06:13:08;2.13;;;1.92;;
1831;SDS011;1680;48.106;11.708;2023-02-26T06:15:36;2.33;;;1.90;;
1831;SDS011;1680;48.106;11.708;2023-02-26T06:18:04;2.95;;;1.73;;
1831;SDS011;1680;48.106;11.708;2023-02-26T06:20:32;1.83;;;1.73;;
1831;SDS011;1680;48.106;11.708;2023-02-26T06:23:00;3.08;;;1.83;;
1831;SDS011;1680;48.106;11.708;2023-02-26T06:25:27;4.90;;;2.20;;
1831;SDS011;1680;48.106;11.708;2023-02-26T06:27:54;2.38;;;1.77;;
1831;SDS011;1680;48.106;11.708;2023-02-26T06:30:21;2.15;;;1.52;;
1831;SDS011;1680;48.106;11.708;2023-02-26T06:32:49;2.90;;;2.03;;
1831;SDS011;1680;48.106;11.708;2023-02-26T06:35:17;2.40;;;1.63;;
1831;SDS011;1680;48.106;11.708;2023-02-26T06:37:44;2.40;;;2.03;;
1831;SDS011;1680;48.106;11.708;2023-02-26T06:40:12;2.08;;;1.70;;
1831;SDS011;1680;48.106;11.708;2023-02-26T06:42:39;3.28;;;1.67;;
1831;SDS011;1680;48.106;11.708;2023-02-26T06:45:07;2.22;;;1.98;;
1831;SDS011;1680;48.106;11.708;2023-02-26T06:47:35;2.92;;;1.75;;
1831;SDS011;1680;48.106;11.708;2023-02-26T06:50:02;1.83;;;1.73;;
1831;SDS011;1680;48.106;11.708;2023-02-26T06:52:31;2.42;;;1.60;;
1831;SDS011;1680;48.106;11.708;2023-02-26T06:54:59;3.13;;;2.20;;
1831;SDS011;1680;48.106;11.708;2023-02-26T06:57:26;3.17;;;1.95;;
1831;SDS011;1680;48.106;11.708;2023-02-26T06:59:53;2.10;;;1.65;;
1831;SDS011;1680;48.106;11.708;2023-02-26T07:02:21;3.70;;;2.10;;
1831;SDS011;1680;48.106;11.708;2023-02-26T07:04:49;2.42;;;1.90;;
1831;SDS011;1680;48.106;11.708;2023-02-26T07:07:16;2.88;;;2.28;;
1831;SDS011;1680;48.106;11.708;2023-02-26T07:09:44;2.35;;;2.15;;
1831;SDS011;1680;48.106;11.708;2023-02-26T07:12:12;4.80;;;2.35;;
1831;SDS011;1680;48.106;11.708;2023-02-26T07:14:39;4.18;;;2.20;;
1831;SDS011;1680;48.106;11.708;2023-02-26T07:17:07;2.63;;;2.05;;
1831;SDS011;1680;48.106;11.708;2023-02-26T07:19:34;5.60;;;2.30;;
1831;SDS011;1680;48.106;11.708;2023-02-26T07:22:01;4.63;;;2.15;;
1831;SDS011;1680;48.106;11.708;2023-02-26T07:24:29;4.90;;;2.20;;
1831;SDS011;1680;48.106;11.708;2023-02-26T07:26:57;2.13;;;1.77;;
1831;SDS011;1680;48.106;11.708;2023-02-26T07:29:24;2.15;;;1.95;;
1831;SDS011;1680;48.106;11.708;2023-02-26T07:31:52;2.28;;;2.00;;
1831;SDS011;1680;48.106;11.708;2023-02-26T07:34:20;4.18;;;2.22;;
1831;SDS011;1680;48.106;11.708;2023-02-26T07:36:47;2.85;;;1.95;;
1831;SDS011;1680;48.106;11.708;2023-02-26T07:39:15;4.00;;;2.30;;
1831;SDS011;1680;48.106;11.708;2023-02-26T07:41:42;4.00;;;2.38;;
1831;SDS011;1680;48.106;11.708;2023-02-26T07:44:11;2.40;;;2.13;;
1831;SDS011;1680;48.106;11.708;2023-02-26T07:46:38;2.20;;;2.00;;
1831;SDS011;1680;48.106;11.708;2023-02-26T07:49:05;12.90;;;9.57;;
1831;SDS011;1680;48.106;11.708;2023-02-26T07:51:34;8.30;;;6.88;;
1831;SDS011;1680;48.106;11.708;2023-02-26T07:54:02;7.55;;;6.85;;
1831;SDS011;1680;48.106;11.708;2023-02-26T07:56:29;3.65;;;2.67;;
1831;SDS011;1680;48.106;11.708;2023-02-26T07:58:56;3.50;;;2.00;;
1831;SDS011;1680;48.106;11.708;2023-02-26T08:01:25;8.43;;;6.13;;
1831;SDS011;1680;48.106;11.708;2023-02-26T08:03:52;8.05;;;5.25;;
1831;SDS011;1680;48.106;11.708;2023-02-26T08:06:19;2.95;;;2.50;;
1831;SDS011;1680;48.106;11.708;2023-02-26T08:08:46;3.90;;;2.33;;
1831;SDS011;1680;48.106;11.708;2023-02-26T08:11:13;3.30;;;2.65;;
1831;SDS011;1680;48.106;11.708;2023-02-26T08:13:41;3.70;;;3.30;;
1831;SDS011;1680;48.106;11.708;2023-02-26T08:16:08;3.60;;;2.70;;
1831;SDS011;1680;48.106;11.708;2023-02-26T08:18:37;3.50;;;2.30;;
1831;SDS011;1680;48.106;11.708;2023-02-26T08:21:04;3.10;;;2.70;;
1831;SDS011;1680;48.106;11.708;2023-02-26T08:23:31;3.45;;;3.15;;
1831;SDS011;1680;48.106;11.708;2023-02-26T08:25:59;6.68;;;5.97;;
1831;SDS011;1680;48.106;11.708;2023-02-26T08:28:27;3.53;;;3.00;;
1831;SDS011;1680;48.106;11.708;2023-02-26T08:30:54;2.83;;;2.30;;
1831;SDS011;1680;48.106;11.708;2023-02-26T08:33:22;3.08;;;2.50;;
1831;SDS011;1680;48.106;11.708;2023-02-26T08:35:51;4.13;;;2.58;;
1831;SDS011;1680;48.106;11.708;2023-02-26T08:38:19;2.50;;;1.90;;
1831;SDS011;1680;48.106;11.708;2023-02-26T08:40:47;4.03;;;2.30;;
1831;SDS011;1680;48.106;11.708;2023-02-26T08:43:16;7.00;;;2.88;;
1831;SDS011;1680;48.106;11.708;2023-02-26T08:45:44;2.92;;;2.50;;
1831;SDS011;1680;48.106;11.708;2023-02-26T08:48:11;2.80;;;2.47;;
1831;SDS011;1680;48.106;11.708;2023-02-26T08:50:39;2.40;;;2.22;;
1831;SDS011;1680;48.106;11.708;2023-02-26T08:53:08;2.95;;;2.75;;
1831;SDS011;1680;48.106;11.708;2023-02-26T08:55:35;4.30;;;2.30;;
1831;SDS011;1680;48.106;11.708;2023-02-26T08:58:03;2.85;;;2.60;;
1831;SDS011;1680;48.106;11.708;2023-02-26T09:00:30;3.42;;;2.30;;
1831;SDS011;1680;48.106;11.708;2023-02-26T09:02:57;3.47;;;2.53;;
1831;SDS011;1680;48.106;11.708;2023-02-26T09:05:25;2.72;;;2.45;;
1831;SDS011;1680;48.106;11.708;2023-02-26T09:07:52;2.60;;;2.40;;
1831;SDS011;1680;48.106;11.708;2023-02-26T09:13:43;2.70;;;2.47;;
1831;SDS011;1680;48.106;11.708;2023-02-26T09:16:10;3.28;;;2.60;;
1831;SDS011;1680;48.106;11.708;2023-02-26T09:18:37;2.63;;;2.10;;
1831;SDS011;1680;48.106;11.708;2023-02-26T09:21:05;2.63;;;2.42;;
1831;SDS011;1680;48.106;11.708;2023-02-26T09:23:32;2.42;;;2.17;;
1831;SDS011;1680;48.106;11.708;2023-02-26T09:25:59;2.60;;;2.40;;
1831;SDS011;1680;48.106;11.708;2023-02-26T09:28:26;2.92;;;2.60;;
1831;SDS011;1680;48.106;11.708;2023-02-26T09:30:55;2.67;;;2.42;;
1831;SDS011;1680;48.106;11.708;2023-02-26T09:33:22;3.10;;;2.90;;
1831;SDS011;1680;48.106;11.708;2023-02-26T09:35:49;2.63;;;2.42;;
1831;SDS011;1680;48.106;11.708;2023-02-26T09:38:17;4.00;;;3.10;;
1831;SDS011;1680;48.106;11.708;2023-02-26T09:40:45;3.20;;;3.00;;
1831;SDS011;1680;48.106;11.708;2023-02-26T09:46:16;4.65;;;2.83;;
1831;SDS011;1680;48.106;11.708;2023-02-26T09:48:50;5.50;;;3.03;;
1831;SDS011;1680;48.106;11.708;2023-02-26T09:51:22;3.85;;;2.97;;
1831;SDS011;1680;48.106;11.708;2023-02-26T09:53:51;3.28;;;2.97;;
1831;SDS011;1680;48.106;11.708;2023-02-26T09:56:20;2.83;;;2.55;;
1831;SDS011;1680;48.106;11.708;2023-02-26T09:58:50;3.05;;;2.50;;
1831;SDS011;1680;48.106;11.708;2023-02-26T10:01:22;2.70;;;2.50;;
1831;SDS011;1680;48.106;11.708;2023-02-26T10:04:00;3.10;;;2.80;;
1831;SDS011;1680;48.106;11.708;2023-02-26T10:06:37;2.63;;;2.42;;
1831;SDS011;1680;48.106;11.708;2023-02-26T10:09:18;2.60;;;2.40;;
1831;SDS011;1680;48.106;11.708;2023-02-26T10:11:58;3.42;;;2.92;;
1831;SDS011;1680;48.106;11.708;2023-02-26T10:14:30;3.03;;;2.70;;
1831;SDS011;1680;48.106;11.708;2023-02-26T10:17:05;2.85;;;2.63;;
1831;SDS011;1680;48.106;11.708;2023-02-26T10:19:39;2.80;;;2.60;;
1831;SDS011;1680;48.106;11.708;2023-02-26T10:22:12;2.90;;;2.70;;
1831;SDS011;1680;48.106;11.708;2023-02-26T10:24:45;3.33;;;3.03;;
1831;SDS011;1680;48.106;11.708;2023-02-26T10:27:16;3.60;;;3.30;;
1831;SDS011;1680;48.106;11.708;2023-02-26T10:29:49;3.00;;;2.80;;
1831;SDS011;1680;48.106;11.708;2023-02-26T10:32:22;4.00;;;3.08;;
1831;SDS011;1680;48.106;11.708;2023-02-26T10:34:55;3.30;;;3.00;;
1831;SDS011;1680;48.106;11.708;2023-02-26T10:37:28;3.38;;;3.08;;
1831;SDS011;1680;48.106;11.708;2023-02-26T10:40:08;3.20;;;2.90;;
1831;SDS011;1680;48.106;11.708;2023-02-26T10:42:41;2.85;;;2.65;;
1831;SDS011;1680;48.106;11.708;2023-02-26T10:45:21;3.50;;;3.20;;
1831;SDS011;1680;48.106;11.708;2023-02-26T10:48:03;4.10;;;3.80;;
1831;SDS011;1680;48.106;11.708;2023-02-26T10:50:45;4.88;;;2.90;;
1831;SDS011;1680;48.106;11.708;2023-02-26T10:53:15;3.25;;;3.05;;
1831;SDS011;1680;48.106;11.708;2023-02-26T10:55:43;3.03;;;2.83;;
1831;SDS011;1680;48.106;11.708;2023-02-26T10:58:14;3.50;;;3.20;;
1831;SDS011;1680;48.106;11.708;2023-02-26T11:00:44;3.45;;;3.15;;
1831;SDS011;1680;48.106;11.708;2023-02-26T11:03:14;3.13;;;2.92;;
1831;SDS011;1680;48.106;11.708;2023-02-26T11:05:45;5.10;;;3.55;;
1831;SDS011;1680;48.106;11.708;2023-02-26T11:08:14;3.35;;;3.05;;
1831;SDS011;1680;48.106;11.708;2023-02-26T11:10:46;3.75;;;3.35;;
1831;SDS011;1680;48.106;11.708;2023-02-26T11:13:17;3.03;;;2.83;;
1831;SDS011;1680;48.106;11.708;2023-02-26T11:15:45;3.22;;;3.03;;
1831;SDS011;1680;48.106;11.708;2023-02-26T11:18:17;3.28;;;3.00;;
1831;SDS011;1680;48.106;11.708;2023-02-26T11:20:47;3.42;;;3.22;;
1831;SDS011;1680;48.106;11.708;2023-02-26T11:23:15;3.20;;;2.95;;
1831;SDS011;1680;48.106;11.708;2023-02-26T11:25:46;3.13;;;2.92;;
1831;SDS011;1680;48.106;11.708;2023-02-26T11:28:21;2.80;;;2.60;;
1831;SDS011;1680;48.106;11.708;2023-02-26T11:30:50;3.20;;;2.95;;
1831;SDS011;1680;48.106;11.708;2023-02-26T11:33:22;3.58;;;3.38;;
1831;SDS011;1680;48.106;11.708;2023-02-26T11:35:53;3.53;;;3.22;;
1831;SDS011;1680;48.106;11.708;2023-02-26T11:38:26;4.10;;;3.70;;
1831;SDS011;1680;48.106;11.708;2023-02-26T11:40:55;5.22;;;4.82;;
1831;SDS011;1680;48.106;11.708;2023-02-26T11:43:24;6.70;;;6.05;;
1831;SDS011;1680;48.106;11.708;2023-02-26T11:45:59;5.78;;;5.28;;
1831;SDS011;1680;48.106;11.708;2023-02-26T11:48:37;6.43;;;5.72;;
1831;SDS011;1680;48.106;11.708;2023-02-26T11:51:07;5.13;;;4.65;;
1831;SDS011;1680;48.106;11.708;2023-02-26T11:53:41;3.85;;;3.55;;
1831;SDS011;1680;48.106;11.708;2023-02-26T11:56:14;4.03;;;3.72;;
1831;SDS011;1680;48.106;11.708;2023-02-26T11:58:49;3.30;;;3.00;;
1831;SDS011;1680;48.106;11.708;2023-02-26T12:01:19;3.90;;;3.60;;
1831;SDS011;1680;48.106;11.708;2023-02-26T12:03:50;2.90;;;2.70;;
1831;SDS011;1680;48.106;11.708;2023-02-26T12:06:18;3.00;;;2.80;;
1831;SDS011;1680;48.106;11.708;2023-02-26T12:08:48;3.00;;;2.80;;
1831;SDS011;1680;48.106;11.708;2023-02-26T12:14:18;3.20;;;3.00;;
1831;SDS011;1680;48.106;11.708;2023-02-26T12:17:07;2.45;;;2.35;;
1831;SDS011;1680;48.106;11.708;2023-02-26T12:19:48;2.72;;;2.55;;
1831;SDS011;1680;48.106;11.708;2023-02-26T12:22:26;2.55;;;2.45;;
1831;SDS011;1680;48.106;11.708;2023-02-26T12:25:11;2.20;;;2.10;;
1831;SDS011;1680;48.106;11.708;2023-02-26T12:27:55;2.10;;;2.00;;
1831;SDS011;1680;48.106;11.708;2023-02-26T12:30:50;2.35;;;2.25;;
1831;SDS011;1680;48.106;11.708;2023-02-26T12:33:32;2.20;;;2.10;;
1831;SDS011;1680;48.106;11.708;2023-02-26T12:36:17;2.33;;;2.22;;
1831;SDS011;1680;48.106;11.708;2023-02-26T12:38:58;2.40;;;2.30;;
1831;SDS011;1680;48.106;11.708;2023-02-26T12:41:40;2.67;;;2.47;;
1831;SDS011;1680;48.106;11.708;2023-02-26T12:44:20;2.45;;;2.35;;
1831;SDS011;1680;48.106;11.708;2023-02-26T12:47:13;2.70;;;1.98;;
1831;SDS011;1680;48.106;11.708;2023-02-26T12:50:03;2.20;;;2.10;;
1831;SDS011;1680;48.106;11.708;2023-02-26T12:52:45;2.40;;;2.20;;
1831;SDS011;1680;48.106;11.708;2023-02-26T12:55:31;2.60;;;2.40;;
1831;SDS011;1680;48.106;11.708;2023-02-26T12:58:11;2.60;;;2.40;;
1831;SDS011;1680;48.106;11.708;2023-02-26T13:00:55;3.88;;;2.97;;
1831;SDS011;1680;48.106;11.708;2023-02-26T13:03:45;2.10;;;2.00;;
1831;SDS011;1680;48.106;11.708;2023-02-26T13:06:39;2.75;;;2.55;;
1831;SDS011;1680;48.106;11.708;2023-02-26T13:09:28;3.00;;;2.80;;
1831;SDS011;1680;48.106;11.708;2023-02-26T13:12:01;6.38;;;4.35;;
1831;SDS011;1680;48.106;11.708;2023-02-26T13:14:41;6.35;;;4.18;;
1831;SDS011;1680;48.106;11.708;2023-02-26T13:17:19;7.20;;;5.18;;
1831;SDS011;1680;48.106;11.708;2023-02-26T13:19:54;5.18;;;3.28;;
1831;SDS011;1680;48.106;11.708;2023-02-26T13:22:25;2.55;;;2.35;;
1831;SDS011;1680;48.106;11.708;2023-02-26T13:24:58;2.58;;;2.38;;
1831;SDS011;1680;48.106;11.708;2023-02-26T13:27:30;2.73;;;2.53;;
1831;SDS011;1680;48.106;11.708;2023-02-26T13:30:13;2.47;;;2.28;;
1831;SDS011;1680;48.106;11.708;2023-02-26T13:32:48;2.10;;;2.00;;
1831;SDS011;1680;48.106;11.708;2023-02-26T13:35:20;2.58;;;2.38;;
1831;SDS011;1680;48.106;11.708;2023-02-26T13:37:53;2.55;;;2.33;;
1831;SDS011;1680;48.106;11.708;2023-02-26T13:43:18;1.65;;;1.55;;
1831;SDS011;1680;48.106;11.708;2023-02-26T13:46:01;2.00;;;1.80;;
1831;SDS011;1680;48.106;11.708;2023-02-26T13:48:40;2.55;;;1.83;;
1831;SDS011;1680;48.106;11.708;2023-02-26T13:51:20;2.00;;;1.88;;
1831;SDS011;1680;48.106;11.708;2023-02-26T13:53:57;2.13;;;2.03;;
1831;SDS011;1680;48.106;11.708;2023-02-26T13:56:44;2.75;;;2.42;;
1831;SDS011;1680;48.106;11.708;2023-02-26T14:08:07;1.45;;;1.30;;
1831;SDS011;1680;48.106;11.708;2023-02-26T14:11:03;1.70;;;1.60;;
1831;SDS011;1680;48.106;11.708;2023-02-26T14:14:04;2.63;;;2.13;;
1831;SDS011;1680;48.106;11.708;2023-02-26T14:16:38;2.28;;;1.65;;
1831;SDS011;1680;48.106;11.708;2023-02-26T14:19:17;1.70;;;1.60;;
1831;SDS011;1680;48.106;11.708;2023-02-26T14:21:48;3.72;;;2.63;;
1831;SDS011;1680;48.106;11.708;2023-02-26T14:24:18;2.78;;;2.47;;
1831;SDS011;1680;48.106;11.708;2023-02-26T14:26:49;1.40;;;1.30;;
1831;SDS011;1680;48.106;11.708;2023-02-26T14:29:38;2.53;;;2.13;;
1831;SDS011;1680;48.106;11.708;2023-02-26T14:32:13;2.22;;;1.85;;
1831;SDS011;1680;48.106;11.708;2023-02-26T14:34:45;2.35;;;2.15;;
1831;SDS011;1680;48.106;11.708;2023-02-26T14:37:18;2.63;;;2.20;;
1831;SDS011;1680;48.106;11.708;2023-02-26T14:39:49;2.25;;;2.15;;
1831;SDS011;1680;48.106;11.708;2023-02-26T14:42:26;2.50;;;2.30;;
1831;SDS011;1680;48.106;11.708;2023-02-26T14:45:03;2.40;;;2.28;;
1831;SDS011;1680;48.106;11.708;2023-02-26T14:47:35;2.20;;;2.03;;
1831;SDS011;1680;48.106;11.708;2023-02-26T14:50:05;2.35;;;1.83;;
1831;SDS011;1680;48.106;11.708;2023-02-26T14:52:37;2.25;;;2.05;;
1831;SDS011;1680;48.106;11.708;2023-02-26T14:58:10;2.97;;;1.77;;
1831;SDS011;1680;48.106;11.708;2023-02-26T15:00:51;4.35;;;3.95;;
1831;SDS011;1680;48.106;11.708;2023-02-26T15:03:31;4.25;;;3.50;;
1831;SDS011;1680;48.106;11.708;2023-02-26T15:06:18;4.78;;;3.75;;
1831;SDS011;1680;48.106;11.708;2023-02-26T15:09:05;6.72;;;4.97;;
1831;SDS011;1680;48.106;11.708;2023-02-26T15:11:43;4.82;;;3.78;;
1831;SDS011;1680;48.106;11.708;2023-02-26T15:14:28;5.57;;;4.00;;
1831;SDS011;1680;48.106;11.708;2023-02-26T15:17:11;11.50;;;5.68;;
1831;SDS011;1680;48.106;11.708;2023-02-26T15:19:55;3.97;;;2.85;;
1831;SDS011;1680;48.106;11.708;2023-02-26T15:22:35;3.72;;;2.53;;
1831;SDS011;1680;48.106;11.708;2023-02-26T15:25:15;3.38;;;2.63;;
1831;SDS011;1680;48.106;11.708;2023-02-26T15:27:54;4.93;;;4.30;;
1831;SDS011;1680;48.106;11.708;2023-02-26T15:30:22;4.50;;;2.95;;
1831;SDS011;1680;48.106;11.708;2023-02-26T15:32:56;3.28;;;2.97;;
1831;SDS011;1680;48.106;11.708;2023-02-26T15:35:26;2.10;;;1.90;;
1831;SDS011;1680;48.106;11.708;2023-02-26T15:37:55;2.22;;;2.03;;
1831;SDS011;1680;48.106;11.708;2023-02-26T15:40:26;2.40;;;2.08;;
1831;SDS011;1680;48.106;11.708;2023-02-26T15:42:56;2.58;;;2.38;;
1831;SDS011;1680;48.106;11.708;2023-02-26T15:45:26;4.50;;;3.20;;
1831;SDS011;1680;48.106;11.708;2023-02-26T15:48:00;3.30;;;2.95;;
1831;SDS011;1680;48.106;11.708;2023-02-26T15:50:30;2.30;;;2.10;;
1831;SDS011;1680;48.106;11.708;2023-02-26T15:53:00;2.60;;;2.40;;
1831;SDS011;1680;48.106;11.708;2023-02-26T15:55:30;3.65;;;2.03;;
1831;SDS011;1680;48.106;11.708;2023-02-26T15:58:01;2.03;;;1.85;;